Time;durP1;ratioP1;P1;durP2;ratioP2;P2;SDS_P1;SDS_P2;PMS_P1;PMS_P2;Temp;Humidity;BMP_temperature;BMP_pressure;BME280_temperature;BME280_humidity;BME280_pressure;Samples;Min_cycle;Max_cycle;Signal;HPM_P1;HPM_P2
2021/07/28 00:00:51;;;;;;;;;;;;;;;;;;2116060;28;1460;-85
2021/07/28 00:01:51;;;;;;;;;;;;;;;;;;2116325;28;781;-85
2021/07/28 00:02:53;;;;;;;;;;;;;;;;;;2116349;28;1477;-84
2021/07/28 00:03:53;;;;;;;;;;;;;;;;;;2107830;28;1347;-85
2021/07/28 00:04:55;;;;;;;;;;;;;;;;;;2116165;28;1653;-85
2021/07/28 00:05:56;;;;;;;;;;;;;;;;;;2116460;28;927;-85
2021/07/28 00:06:57;;;;;;;;;;;;;;;;;;2116000;28;1719;-85
2021/07/28 00:07:58;;;;;;;;;;;;;;;;;;2107818;28;1210;-85
2021/07/28 00:09:00;;;;;;;;;;;;;;;;;;2109209;28;1696;-85
2021/07/28 00:10:00;;;;;;;;;;;;;;;;;;2107843;28;1633;-85
2021/07/28 00:11:03;;;;;;;;;;;;;;;;;;2107533;28;1230;-86
2021/07/28 00:12:05;;;;;;;;;;;;;;;;;;2107802;28;1972;-85
2021/07/28 00:13:06;;;;;;;;;;;;;;;;;;2116193;28;835;-86
2021/07/28 00:14:07;;;;;;;;;;;;;;;;;;2123997;27;1395;-86
2021/07/28 00:15:09;;;;;;;;;;;;;;;;;;2115954;28;1242;-85
2021/07/28 00:16:11;;;;;;;;;;;;;;;;;;2124766;27;796;-85
2021/07/28 00:17:13;;;;;;;;;;;;;;;;;;2133632;27;898;-85
2021/07/28 00:18:20;;;;;;;;;;;;;;;;;;2118220;28;1506;-85
2021/07/28 00:19:24;;;;;;;;;;;;;;;;;;2108170;28;1492;-85
2021/07/28 00:20:29;;;;;;;;;;;;;;;;;;2107425;28;1206;-86
2021/07/28 00:24:10;;;;;;;;;;;;;;;;;;2102651;28;1222;-86
2021/07/28 00:25:11;;;;;;;;;;;;;;;;;;2109279;28;1508;-85
2021/07/28 00:26:14;;;;;;;;;;;;;;;;;;2117826;28;1718;-84
2021/07/28 00:27:14;;;;;;;;;;;;;;;;;;2109361;28;1230;-86
2021/07/28 00:28:16;;;;;;;;;;;;;;;;;;2110518;27;1373;-86
2021/07/28 00:29:17;;;;;;;;;;;;;;;;;;2135565;27;947;-85
2021/07/28 00:30:18;;;;;;;;;;;;;;;;;;2126348;27;1844;-88
2021/07/28 00:31:19;;;;;;;;;;;;;;;;;;2110683;28;1453;-85
2021/07/28 00:32:21;;;;;;;;;;;;;;;;;;2109243;28;1910;-86
2021/07/28 00:33:21;;;;;;;;;;;;;;;;;;2117577;28;1390;-85
2021/07/28 00:34:23;;;;;;;;;;;;;;;;;;2109109;28;1514;-87
2021/07/28 00:35:24;;;;;;;;;;;;;;;;;;2117738;28;1521;-86
2021/07/28 00:36:26;;;;;;;;;;;;;;;;;;2109137;28;1246;-86
2021/07/28 00:37:26;;;;;;;;;;;;;;;;;;2109323;28;1262;-85
2021/07/28 00:38:28;;;;;;;;;;;;;;;;;;2114297;28;1698;-86
2021/07/28 00:39:29;;;;;;;;;;;;;;;;;;2117827;27;1352;-86
2021/07/28 00:40:30;;;;;;;;;;;;;;;;;;2117564;28;1602;-88
2021/07/28 00:41:32;;;;;;;;;;;;;;;;;;2120411;27;1388;-86
2021/07/28 00:42:34;;;;;;;;;;;;;;;;;;2117600;28;1563;-86
2021/07/28 00:43:35;;;;;;;;;;;;;;;;;;2109295;28;1210;-86
2021/07/28 00:44:37;;;;;;;;;;;;;;;;;;2117636;28;1364;-86
2021/07/28 00:45:39;;;;;;;;;;;;;;;;;;2109480;28;1279;-86
2021/07/28 00:46:41;;;;;;;;;;;;;;;;;;2109360;28;1324;-86
2021/07/28 00:47:42;;;;;;;;;;;;;;;;;;2109128;28;1240;-86
2021/07/28 00:48:43;;;;;;;;;;;;;;;;;;2109174;28;1440;-86
2021/07/28 00:49:44;;;;;;;;;;;;;;;;;;2109156;28;1183;-86
2021/07/28 00:50:46;;;;;;;;;;;;;;;;;;2117905;28;762;-85
2021/07/28 00:51:48;;;;;;;;;;;;;;;;;;2117507;28;1972;-86
2021/07/28 00:52:49;;;;;;;;;;;;;;;;;;2109258;28;1230;-86
2021/07/28 00:53:50;;;;;;;;;;;;;;;;;;2109110;28;1397;-85
2021/07/28 00:54:52;;;;;;;;;;;;;;;;;;2109093;28;1338;-86
2021/07/28 00:55:54;;;;;;;;;;;;;;;;;;2109251;28;1262;-85
2021/07/28 00:56:58;;;;;;;;;;;;;;;;;;2109261;28;1716;-86
2021/07/28 00:57:59;;;;;;;;;;;;;;;;;;2117701;28;1554;-85
2021/07/28 00:59:01;;;;;;;;;;;;;;;;;;2109118;28;1204;-85
2021/07/28 01:00:03;;;;;;;;;;;;;;;;;;2109414;28;1243;-86
2021/07/28 01:01:04;;;;;;;;;;;;;;;;;;2109361;28;1563;-85
2021/07/28 01:02:05;;;;;;;;;;;;;;;;;;2108969;28;1691;-85
2021/07/28 01:03:07;;;;;;;;;;;;;;;;;;2109411;28;1612;-86
2021/07/28 01:04:07;;;;;;;;;;;;;;;;;;2109283;28;1511;-86
2021/07/28 01:05:09;;;;;;;;;;;;;;;;;;2117427;28;1218;-85
2021/07/28 01:06:10;;;;;;;;;;;;;;;;;;2117564;27;843;-86
2021/07/28 01:07:12;;;;;;;;;;;;;;;;;;2117678;28;1334;-85
2021/07/28 01:08:13;;;;;;;;;;;;;;;;;;2109026;28;1535;-86
2021/07/28 01:09:15;;;;;;;;;;;;;;;;;;2109120;28;1481;-86
2021/07/28 01:10:15;;;;;;;;;;;;;;;;;;2109429;28;1519;-86
2021/07/28 01:11:24;;;;;;;;;;;;;;;;;;2117377;28;1378;-86
2021/07/28 01:12:29;;;;;;;;;;;;;;;;;;2110399;28;1910;-85
2021/07/28 01:13:32;;;;;;;;;;;;;;;;;;2109819;28;1211;-85
2021/07/28 01:14:33;;;;;;;;;;;;;;;;;;2109068;28;1578;-84
2021/07/28 01:15:40;;;;;;;;;;;;;;;;;;2108928;28;1436;-85
2021/07/28 01:16:41;;;;;;;;;;;;;;;;;;2117803;28;1546;-85
2021/07/28 01:17:43;;;;;;;;;;;;;;;;;;2117351;28;1502;-85
2021/07/28 01:18:44;;;;;;;;;;;;;;;;;;2109159;28;1544;-85
2021/07/28 01:19:48;;;;;;;;;;;;;;;;;;2117668;28;756;-85
2021/07/28 01:20:49;;;;;;;;;;;;;;;;;;2117197;28;1485;-85
2021/07/28 01:21:52;;;;;;;;;;;;;;;;;;2108886;28;1493;-85
2021/07/28 01:22:55;;;;;;;;;;;;;;;;;;2109340;28;1250;-85
2021/07/28 01:23:58;;;;;;;;;;;;;;;;;;2117958;27;916;-87
2021/07/28 01:24:59;;;;;;;;;;;;;;;;;;2126606;27;831;-88
2021/07/28 01:26:02;;;;;;;;;;;;;;;;;;2117341;28;1843;-85
2021/07/28 01:27:03;;;;;;;;;;;;;;;;;;2109169;28;1380;-84
2021/07/28 01:28:05;;;;;;;;;;;;;;;;;;2117219;28;1512;-85
2021/07/28 01:29:06;;;;;;;;;;;;;;;;;;2117562;28;1669;-85
2021/07/28 01:30:08;;;;;;;;;;;;;;;;;;2108789;28;1256;-85
2021/07/28 01:31:10;;;;;;;;;;;;;;;;;;2117449;27;891;-86
2021/07/28 01:32:14;;;;;;;;;;;;;;;;;;2117148;28;1906;-85
2021/07/28 01:33:15;;;;;;;;;;;;;;;;;;2109205;28;1206;-85
2021/07/28 01:34:18;;;;;;;;;;;;;;;;;;2117414;28;827;-86
2021/07/28 01:35:19;;;;;;;;;;;;;;;;;;2117540;28;1274;-85
2021/07/28 01:36:22;;;;;;;;;;;;;;;;;;2117451;28;861;-85
2021/07/28 01:37:22;;;;;;;;;;;;;;;;;;2117228;28;1791;-85
2021/07/28 01:38:26;;;;;;;;;;;;;;;;;;2108767;28;1642;-85
2021/07/28 01:39:28;;;;;;;;;;;;;;;;;;2117625;27;804;-85
2021/07/28 01:40:30;;;;;;;;;;;;;;;;;;2117054;28;1248;-89
2021/07/28 01:41:31;;;;;;;;;;;;;;;;;;2108491;28;1386;-86
2021/07/28 01:42:41;;;;;;;;;;;;;;;;;;2108250;28;1701;-86
2021/07/28 01:43:42;;;;;;;;;;;;;;;;;;2118620;27;823;-86
2021/07/28 01:44:44;;;;;;;;;;;;;;;;;;2115386;28;1893;-86
2021/07/28 01:45:44;;;;;;;;;;;;;;;;;;2118374;27;1316;-85
2021/07/28 01:46:46;;;;;;;;;;;;;;;;;;2119539;27;1793;-85
2021/07/28 01:47:46;;;;;;;;;;;;;;;;;;2122505;27;1423;-85
2021/07/28 01:48:48;;;;;;;;;;;;;;;;;;2125534;27;1287;-85
2021/07/28 01:49:49;;;;;;;;;;;;;;;;;;2109307;28;1578;-86
2021/07/28 01:50:51;;;;;;;;;;;;;;;;;;2115149;28;1626;-86
2021/07/28 01:51:51;;;;;;;;;;;;;;;;;;2116998;27;1352;-85
2021/07/28 01:52:53;;;;;;;;;;;;;;;;;;2116515;28;1906;-84
2021/07/28 01:53:54;;;;;;;;;;;;;;;;;;2115662;28;1318;-84
2021/07/28 01:54:57;;;;;;;;;;;;;;;;;;2110756;28;1507;-84
2021/07/28 01:55:58;;;;;;;;;;;;;;;;;;2119295;27;1700;-85
2021/07/28 01:57:01;;;;;;;;;;;;;;;;;;2125371;27;923;-88
2021/07/28 01:58:04;;;;;;;;;;;;;;;;;;2116662;28;1305;-86
2021/07/28 01:59:05;;;;;;;;;;;;;;;;;;2116594;28;2059;-85
2021/07/28 02:00:06;;;;;;;;;;;;;;;;;;2117576;28;789;-86
2021/07/28 02:01:09;;;;;;;;;;;;;;;;;;2121584;27;1343;-84
2021/07/28 02:02:09;;;;;;;;;;;;;;;;;;2126361;27;902;-86
2021/07/28 02:03:11;;;;;;;;;;;;;;;;;;2118176;27;1509;-86
2021/07/28 02:04:12;;;;;;;;;;;;;;;;;;2117155;28;2024;-85
2021/07/28 02:05:14;;;;;;;;;;;;;;;;;;2122552;27;1359;-85
2021/07/28 02:06:15;;;;;;;;;;;;;;;;;;2126156;27;804;-87
2021/07/28 02:07:18;;;;;;;;;;;;;;;;;;2124896;27;1376;-88
2021/07/28 02:08:18;;;;;;;;;;;;;;;;;;2117457;27;1493;-86
2021/07/28 02:09:20;;;;;;;;;;;;;;;;;;2106993;28;1613;-85
2021/07/28 02:10:22;;;;;;;;;;;;;;;;;;2112717;27;1409;-86
2021/07/28 02:11:24;;;;;;;;;;;;;;;;;;2125282;27;1001;-86
2021/07/28 02:12:24;;;;;;;;;;;;;;;;;;2125078;27;1906;-86
2021/07/28 02:13:26;;;;;;;;;;;;;;;;;;2123884;27;1548;-85
2021/07/28 02:14:27;;;;;;;;;;;;;;;;;;2117847;27;1392;-84
2021/07/28 02:15:29;;;;;;;;;;;;;;;;;;2121220;27;1497;-85
2021/07/28 02:16:29;;;;;;;;;;;;;;;;;;2117718;27;1395;-85
2021/07/28 02:17:32;;;;;;;;;;;;;;;;;;2113274;28;1620;-86
2021/07/28 02:18:33;;;;;;;;;;;;;;;;;;2125789;27;908;-85
2021/07/28 02:19:35;;;;;;;;;;;;;;;;;;2117623;27;2018;-86
2021/07/28 02:20:35;;;;;;;;;;;;;;;;;;2125850;27;855;-86
2021/07/28 02:21:37;;;;;;;;;;;;;;;;;;2116635;28;1252;-86
2021/07/28 02:22:38;;;;;;;;;;;;;;;;;;2113269;28;1340;-85
2021/07/28 02:23:41;;;;;;;;;;;;;;;;;;2108405;28;1491;-85
2021/07/28 02:24:41;;;;;;;;;;;;;;;;;;2116838;27;2070;-85
2021/07/28 02:25:44;;;;;;;;;;;;;;;;;;2122841;27;1442;-84
2021/07/28 02:26:45;;;;;;;;;;;;;;;;;;2118424;27;1332;-85
2021/07/28 02:27:47;;;;;;;;;;;;;;;;;;2112295;28;1666;-85
2021/07/28 02:28:48;;;;;;;;;;;;;;;;;;2108025;28;1889;-85
2021/07/28 02:29:50;;;;;;;;;;;;;;;;;;2121382;27;1273;-85
2021/07/28 02:30:50;;;;;;;;;;;;;;;;;;2122978;27;1489;-85
2021/07/28 02:31:52;;;;;;;;;;;;;;;;;;2121806;27;1396;-85
2021/07/28 02:32:53;;;;;;;;;;;;;;;;;;2123081;27;1901;-86
2021/07/28 02:33:54;;;;;;;;;;;;;;;;;;2119267;27;1832;-85
2021/07/28 02:34:55;;;;;;;;;;;;;;;;;;2113385;27;1439;-85
2021/07/28 02:35:57;;;;;;;;;;;;;;;;;;2116710;28;1477;-86
2021/07/28 02:36:58;;;;;;;;;;;;;;;;;;2099772;28;1182;-85
2021/07/28 02:38:00;;;;;;;;;;;;;;;;;;2108452;28;955;-85
2021/07/28 02:39:01;;;;;;;;;;;;;;;;;;2111747;28;1717;-85
2021/07/28 02:40:03;;;;;;;;;;;;;;;;;;2099917;28;1449;-87
2021/07/28 02:41:05;;;;;;;;;;;;;;;;;;2110596;28;1537;-87
2021/07/28 02:42:07;;;;;;;;;;;;;;;;;;2107829;28;1310;-86
2021/07/28 02:43:07;;;;;;;;;;;;;;;;;;2104012;28;1470;-86
2021/07/28 02:44:09;;;;;;;;;;;;;;;;;;2116692;28;861;-86
2021/07/28 02:45:10;;;;;;;;;;;;;;;;;;2116450;28;1590;-86
2021/07/28 02:46:11;;;;;;;;;;;;;;;;;;2108196;28;1711;-85
2021/07/28 02:47:12;;;;;;;;;;;;;;;;;;2107587;28;1517;-86
2021/07/28 02:48:14;;;;;;;;;;;;;;;;;;2107954;28;1652;-86
2021/07/28 02:49:14;;;;;;;;;;;;;;;;;;2102932;28;1823;-86
2021/07/28 02:50:16;;;;;;;;;;;;;;;;;;2099633;28;843;-85
2021/07/28 02:51:16;;;;;;;;;;;;;;;;;;2099275;28;1243;-84
2021/07/28 02:52:18;;;;;;;;;;;;;;;;;;2099586;28;865;-85
2021/07/28 02:53:22;;;;;;;;;;;;;;;;;;2096564;28;1898;-84
2021/07/28 02:54:24;;;;;;;;;;;;;;;;;;2104837;28;1866;-84
2021/07/28 02:55:24;;;;;;;;;;;;;;;;;;2116602;28;815;-84
2021/07/28 02:56:27;;;;;;;;;;;;;;;;;;2115421;28;1237;-84
2021/07/28 02:57:28;;;;;;;;;;;;;;;;;;2107908;28;1638;-84
2021/07/28 02:58:30;;;;;;;;;;;;;;;;;;2107621;28;1256;-84
2021/07/28 02:59:30;;;;;;;;;;;;;;;;;;2115303;28;1952;-85
2021/07/28 03:00:32;;;;;;;;;;;;;;;;;;2108211;28;811;-85
2021/07/28 03:01:33;;;;;;;;;;;;;;;;;;2107607;28;1187;-85
2021/07/28 03:02:34;;;;;;;;;;;;;;;;;;2099359;28;1431;-85
2021/07/28 03:03:35;;;;;;;;;;;;;;;;;;2099213;28;1285;-85
2021/07/28 03:04:37;;;;;;;;;;;;;;;;;;2101179;28;1847;-85
2021/07/28 03:05:37;;;;;;;;;;;;;;;;;;2099692;28;1842;-84
2021/07/28 03:06:39;;;;;;;;;;;;;;;;;;2099542;28;1249;-85
2021/07/28 03:07:40;;;;;;;;;;;;;;;;;;2099599;28;1291;-85
2021/07/28 03:08:41;;;;;;;;;;;;;;;;;;2099334;28;1499;-85
2021/07/28 03:09:42;;;;;;;;;;;;;;;;;;2107909;28;926;-85
2021/07/28 03:10:44;;;;;;;;;;;;;;;;;;2108147;28;784;-85
2021/07/28 03:11:46;;;;;;;;;;;;;;;;;;2107712;28;1538;-85
2021/07/28 03:12:47;;;;;;;;;;;;;;;;;;2107825;28;1914;-85
2021/07/28 03:13:48;;;;;;;;;;;;;;;;;;2099365;28;1894;-86
2021/07/28 03:14:49;;;;;;;;;;;;;;;;;;2115826;28;897;-84
2021/07/28 03:15:50;;;;;;;;;;;;;;;;;;2124743;27;1254;-85
2021/07/28 03:16:52;;;;;;;;;;;;;;;;;;2116292;28;1277;-84
2021/07/28 03:17:52;;;;;;;;;;;;;;;;;;2116314;28;816;-85
2021/07/28 03:18:54;;;;;;;;;;;;;;;;;;2115384;28;1980;-85
2021/07/28 03:19:55;;;;;;;;;;;;;;;;;;2107900;28;897;-85
2021/07/28 03:20:56;;;;;;;;;;;;;;;;;;2107779;28;1289;-85
2021/07/28 03:21:57;;;;;;;;;;;;;;;;;;2107878;28;839;-85
2021/07/28 03:22:59;;;;;;;;;;;;;;;;;;2107574;28;1891;-85
2021/07/28 03:23:59;;;;;;;;;;;;;;;;;;2100775;28;1810;-85
2021/07/28 03:25:01;;;;;;;;;;;;;;;;;;2107782;28;1351;-85
2021/07/28 03:26:02;;;;;;;;;;;;;;;;;;2116478;27;1503;-86
2021/07/28 03:27:05;;;;;;;;;;;;;;;;;;2115904;28;1273;-85
2021/07/28 03:28:06;;;;;;;;;;;;;;;;;;2108028;28;1236;-85
2021/07/28 03:29:07;;;;;;;;;;;;;;;;;;2116177;28;1296;-85
2021/07/28 03:30:08;;;;;;;;;;;;;;;;;;2107674;28;1183;-85
2021/07/28 03:31:10;;;;;;;;;;;;;;;;;;2115943;28;966;-85
2021/07/28 03:32:11;;;;;;;;;;;;;;;;;;2116934;28;885;-85
2021/07/28 03:33:12;;;;;;;;;;;;;;;;;;2116779;28;1987;-84
2021/07/28 03:34:13;;;;;;;;;;;;;;;;;;2113188;28;1937;-84
2021/07/28 03:35:15;;;;;;;;;;;;;;;;;;2108613;28;846;-85
2021/07/28 03:36:17;;;;;;;;;;;;;;;;;;2108253;28;1886;-87
2021/07/28 03:37:17;;;;;;;;;;;;;;;;;;2107835;28;850;-86
2021/07/28 03:38:19;;;;;;;;;;;;;;;;;;2108295;28;1398;-86
2021/07/28 03:39:19;;;;;;;;;;;;;;;;;;2116034;28;1365;-86
2021/07/28 03:40:21;;;;;;;;;;;;;;;;;;2107817;28;1370;-84
2021/07/28 03:41:22;;;;;;;;;;;;;;;;;;2099251;28;1204;-84
2021/07/28 03:42:25;;;;;;;;;;;;;;;;;;2098929;28;1420;-84
2021/07/28 03:43:25;;;;;;;;;;;;;;;;;;2099365;28;1381;-84
2021/07/28 03:44:27;;;;;;;;;;;;;;;;;;2107810;28;1857;-84
2021/07/28 03:45:28;;;;;;;;;;;;;;;;;;2107255;28;1603;-83
2021/07/28 03:46:29;;;;;;;;;;;;;;;;;;2099268;28;1543;-84
2021/07/28 03:47:30;;;;;;;;;;;;;;;;;;2107597;28;1297;-83
2021/07/28 03:48:31;;;;;;;;;;;;;;;;;;2107729;28;1406;-84
2021/07/28 03:49:32;;;;;;;;;;;;;;;;;;2099724;28;1929;-83
2021/07/28 03:50:34;;;;;;;;;;;;;;;;;;2099267;28;1501;-83
2021/07/28 03:51:34;;;;;;;;;;;;;;;;;;2098988;28;1515;-83
2021/07/28 03:52:36;;;;;;;;;;;;;;;;;;2098859;28;1720;-83
2021/07/28 03:53:37;;;;;;;;;;;;;;;;;;2107695;28;1969;-83
2021/07/28 03:54:38;;;;;;;;;;;;;;;;;;2107579;28;1779;-83
2021/07/28 03:55:39;;;;;;;;;;;;;;;;;;2099265;28;1509;-84
2021/07/28 03:56:41;;;;;;;;;;;;;;;;;;2098949;28;1514;-84
2021/07/28 03:57:43;;;;;;;;;;;;;;;;;;2098949;28;1291;-83
2021/07/28 03:58:44;;;;;;;;;;;;;;;;;;2098238;28;1167;-83
2021/07/28 03:59:45;;;;;;;;;;;;;;;;;;2099010;28;1454;-83
2021/07/28 04:00:47;;;;;;;;;;;;;;;;;;2107420;28;1550;-83
2021/07/28 04:01:47;;;;;;;;;;;;;;;;;;2115999;28;906;-84
2021/07/28 04:02:49;;;;;;;;;;;;;;;;;;2107550;28;1336;-83
2021/07/28 04:03:50;;;;;;;;;;;;;;;;;;2107865;28;1864;-84
2021/07/28 04:04:51;;;;;;;;;;;;;;;;;;2107274;28;1559;-84
2021/07/28 04:05:53;;;;;;;;;;;;;;;;;;2107551;28;1570;-84
2021/07/28 04:06:54;;;;;;;;;;;;;;;;;;2098775;28;1270;-83
2021/07/28 04:07:56;;;;;;;;;;;;;;;;;;2099201;28;1511;-83
2021/07/28 04:08:57;;;;;;;;;;;;;;;;;;2099180;28;1533;-83
2021/07/28 04:09:58;;;;;;;;;;;;;;;;;;2099258;28;1787;-83
2021/07/28 04:11:00;;;;;;;;;;;;;;;;;;2107740;28;803;-84
2021/07/28 04:12:00;;;;;;;;;;;;;;;;;;2107034;28;1552;-84
2021/07/28 04:13:03;;;;;;;;;;;;;;;;;;2107233;28;1985;-83
2021/07/28 04:14:04;;;;;;;;;;;;;;;;;;2109373;28;1873;-83
2021/07/28 04:15:06;;;;;;;;;;;;;;;;;;2115791;28;1455;-83
2021/07/28 04:16:07;;;;;;;;;;;;;;;;;;2107526;28;1321;-83
2021/07/28 04:17:09;;;;;;;;;;;;;;;;;;2107531;28;1899;-83
2021/07/28 04:18:09;;;;;;;;;;;;;;;;;;2107665;28;1527;-83
2021/07/28 04:19:11;;;;;;;;;;;;;;;;;;2107023;28;1885;-83
2021/07/28 04:20:12;;;;;;;;;;;;;;;;;;2115657;28;1745;-86
2021/07/28 04:21:14;;;;;;;;;;;;;;;;;;2124451;28;803;-83
2021/07/28 04:22:14;;;;;;;;;;;;;;;;;;2116843;28;830;-83
2021/07/28 04:23:16;;;;;;;;;;;;;;;;;;2115863;28;1645;-83
2021/07/28 04:24:17;;;;;;;;;;;;;;;;;;2107022;28;1913;-83
2021/07/28 04:25:18;;;;;;;;;;;;;;;;;;2107272;28;1744;-84
2021/07/28 04:26:19;;;;;;;;;;;;;;;;;;2107023;28;866;-83
2021/07/28 04:27:21;;;;;;;;;;;;;;;;;;2106546;28;1375;-83
2021/07/28 04:28:23;;;;;;;;;;;;;;;;;;2099225;28;1247;-84
2021/07/28 04:29:24;;;;;;;;;;;;;;;;;;2104012;28;1870;-83
2021/07/28 04:30:25;;;;;;;;;;;;;;;;;;2107463;28;1807;-83
2021/07/28 04:31:26;;;;;;;;;;;;;;;;;;2107530;28;1577;-83
2021/07/28 04:32:28;;;;;;;;;;;;;;;;;;2107670;28;1270;-83
2021/07/28 04:33:30;;;;;;;;;;;;;;;;;;2107512;28;1914;-83
2021/07/28 04:34:31;;;;;;;;;;;;;;;;;;2106435;28;1858;-84
2021/07/28 04:35:32;;;;;;;;;;;;;;;;;;2107152;28;1216;-83
2021/07/28 04:36:33;;;;;;;;;;;;;;;;;;2098973;28;1645;-83
2021/07/28 04:37:34;;;;;;;;;;;;;;;;;;2107423;28;1522;-83
2021/07/28 04:38:35;;;;;;;;;;;;;;;;;;2099077;28;1660;-83
2021/07/28 04:39:37;;;;;;;;;;;;;;;;;;2107710;28;2048;-83
2021/07/28 04:40:37;;;;;;;;;;;;;;;;;;2107173;28;1367;-83
2021/07/28 04:41:39;;;;;;;;;;;;;;;;;;2098558;28;1717;-83
2021/07/28 04:42:40;;;;;;;;;;;;;;;;;;2098573;28;1585;-83
2021/07/28 04:43:43;;;;;;;;;;;;;;;;;;2099190;28;1357;-83
2021/07/28 04:44:44;;;;;;;;;;;;;;;;;;2107084;28;1909;-83
2021/07/28 04:45:45;;;;;;;;;;;;;;;;;;2115835;28;1227;-83
2021/07/28 04:46:46;;;;;;;;;;;;;;;;;;2115546;28;1380;-85
2021/07/28 04:47:48;;;;;;;;;;;;;;;;;;2115676;28;1273;-83
2021/07/28 04:48:49;;;;;;;;;;;;;;;;;;2115142;28;2071;-83
2021/07/28 04:49:52;;;;;;;;;;;;;;;;;;2116207;28;957;-83
2021/07/28 04:50:52;;;;;;;;;;;;;;;;;;2107301;28;1822;-83
2021/07/28 04:51:54;;;;;;;;;;;;;;;;;;2107658;28;887;-83
2021/07/28 04:52:55;;;;;;;;;;;;;;;;;;2107274;28;1559;-83
2021/07/28 04:53:56;;;;;;;;;;;;;;;;;;2107091;28;1905;-83
2021/07/28 04:54:57;;;;;;;;;;;;;;;;;;2107315;28;1550;-83
2021/07/28 04:55:59;;;;;;;;;;;;;;;;;;2098491;28;1631;-83
2021/07/28 04:57:00;;;;;;;;;;;;;;;;;;2107086;28;818;-83
2021/07/28 04:58:01;;;;;;;;;;;;;;;;;;2107296;28;1570;-83
2021/07/28 04:59:03;;;;;;;;;;;;;;;;;;2108455;28;1974;-83
2021/07/28 05:00:06;;;;;;;;;;;;;;;;;;2115645;28;1601;-83
2021/07/28 05:01:06;;;;;;;;;;;;;;;;;;2104556;28;1681;-83
2021/07/28 05:02:08;;;;;;;;;;;;;;;;;;2115864;28;766;-83
2021/07/28 05:03:08;;;;;;;;;;;;;;;;;;2115244;28;1559;-84
2021/07/28 05:04:11;;;;;;;;;;;;;;;;;;2115287;28;2095;-83
2021/07/28 05:05:11;;;;;;;;;;;;;;;;;;2115714;28;1194;-83
2021/07/28 05:06:13;;;;;;;;;;;;;;;;;;2115871;28;1505;-83
2021/07/28 05:07:14;;;;;;;;;;;;;;;;;;2098913;28;1706;-84
2021/07/28 05:08:15;;;;;;;;;;;;;;;;;;2107084;28;1816;-83
2021/07/28 05:09:16;;;;;;;;;;;;;;;;;;2106870;28;1893;-84
2021/07/28 05:10:18;;;;;;;;;;;;;;;;;;2099730;28;1601;-84
2021/07/28 05:11:18;;;;;;;;;;;;;;;;;;2108816;28;816;-84
2021/07/28 05:12:20;;;;;;;;;;;;;;;;;;2108664;28;1227;-83
2021/07/28 05:13:21;;;;;;;;;;;;;;;;;;2108980;28;1963;-81
2021/07/28 05:14:24;;;;;;;;;;;;;;;;;;2118710;27;1507;-82
2021/07/28 05:15:24;;;;;;;;;;;;;;;;;;2118224;28;866;-79
2021/07/28 05:16:26;;;;;;;;;;;;;;;;;;2117357;28;1545;-79
2021/07/28 05:17:26;;;;;;;;;;;;;;;;;;2108935;28;1662;-79
2021/07/28 05:18:28;;;;;;;;;;;;;;;;;;2108878;28;1575;-79
2021/07/28 05:19:28;;;;;;;;;;;;;;;;;;2117022;28;2008;-80
2021/07/28 05:20:30;;;;;;;;;;;;;;;;;;2117421;28;1260;-80
2021/07/28 05:21:30;;;;;;;;;;;;;;;;;;2109100;28;1611;-79
2021/07/28 05:22:32;;;;;;;;;;;;;;;;;;2117424;28;882;-80
2021/07/28 05:23:33;;;;;;;;;;;;;;;;;;2116871;27;1623;-80
2021/07/28 05:24:34;;;;;;;;;;;;;;;;;;2116871;28;2024;-80
2021/07/28 05:25:35;;;;;;;;;;;;;;;;;;2109418;28;862;-80
2021/07/28 05:26:36;;;;;;;;;;;;;;;;;;2108653;28;1413;-80
2021/07/28 05:27:37;;;;;;;;;;;;;;;;;;2108753;28;1610;-80
2021/07/28 05:28:39;;;;;;;;;;;;;;;;;;2116815;28;1260;-79
2021/07/28 05:29:41;;;;;;;;;;;;;;;;;;2109607;28;2028;-80
2021/07/28 05:30:42;;;;;;;;;;;;;;;;;;2108730;28;760;-80
2021/07/28 05:31:43;;;;;;;;;;;;;;;;;;2118022;27;1509;-80
2021/07/28 05:32:44;;;;;;;;;;;;;;;;;;2116839;28;1155;-80
2021/07/28 05:33:45;;;;;;;;;;;;;;;;;;2116729;28;1965;-80
2021/07/28 05:34:47;;;;;;;;;;;;;;;;;;2117265;28;900;-81
2021/07/28 05:35:48;;;;;;;;;;;;;;;;;;2125746;27;1500;-80
2021/07/28 05:36:52;;;;;;;;;;;;;;;;;;2116542;28;1476;-81
2021/07/28 05:37:56;;;;;;;;;;;;;;;;;;2117657;28;815;-81
2021/07/28 05:38:57;;;;;;;;;;;;;;;;;;2116510;28;1271;-81
2021/07/28 05:39:58;;;;;;;;;;;;;;;;;;2100440;28;1191;-81
2021/07/28 05:41:02;;;;;;;;;;;;;;;;;;2091901;28;1705;-80
2021/07/28 05:42:02;;;;;;;;;;;;;;;;;;2092682;28;1662;-80
2021/07/28 05:43:04;;;;;;;;;;;;;;;;;;2100030;28;1805;-80
2021/07/28 05:44:07;;;;;;;;;;;;;;;;;;2100444;28;1419;-80
2021/07/28 05:45:11;;;;;;;;;;;;;;;;;;2100500;28;1538;-80
2021/07/28 05:46:12;;;;;;;;;;;;;;;;;;2108678;28;851;-80
2021/07/28 05:47:13;;;;;;;;;;;;;;;;;;2127929;27;1416;-83
2021/07/28 05:48:15;;;;;;;;;;;;;;;;;;2126118;27;1592;-80
2021/07/28 05:49:16;;;;;;;;;;;;;;;;;;2125532;27;816;-80
2021/07/28 05:50:17;;;;;;;;;;;;;;;;;;2134942;27;894;-80
2021/07/28 05:51:18;;;;;;;;;;;;;;;;;;2134682;27;946;-80
2021/07/28 05:52:19;;;;;;;;;;;;;;;;;;2125767;27;1591;-80
2021/07/28 05:53:20;;;;;;;;;;;;;;;;;;2125560;27;807;-80
2021/07/28 05:54:22;;;;;;;;;;;;;;;;;;2125404;27;1901;-88
2021/07/28 05:55:23;;;;;;;;;;;;;;;;;;2117285;28;1621;-79
2021/07/28 05:56:24;;;;;;;;;;;;;;;;;;2117211;28;1801;-80
2021/07/28 05:57:25;;;;;;;;;;;;;;;;;;2117027;28;1697;-80
2021/07/28 05:58:27;;;;;;;;;;;;;;;;;;2125658;27;925;-80
2021/07/28 05:59:27;;;;;;;;;;;;;;;;;;2128742;27;940;-80
2021/07/28 06:00:30;;;;;;;;;;;;;;;;;;2128862;27;1546;-80
2021/07/28 06:01:31;;;;;;;;;;;;;;;;;;2134694;27;910;-80
2021/07/28 06:02:32;;;;;;;;;;;;;;;;;;2125654;27;1523;-81
2021/07/28 06:03:33;;;;;;;;;;;;;;;;;;2117163;28;1200;-81
2021/07/28 06:04:34;;;;;;;;;;;;;;;;;;2118651;27;2082;-81
2021/07/28 06:05:35;;;;;;;;;;;;;;;;;;2117008;28;1594;-81
2021/07/28 06:06:36;;;;;;;;;;;;;;;;;;2108408;28;1536;-81
2021/07/28 06:07:37;;;;;;;;;;;;;;;;;;2108628;28;1517;-81
2021/07/28 06:08:38;;;;;;;;;;;;;;;;;;2108292;28;1655;-81
2021/07/28 06:09:40;;;;;;;;;;;;;;;;;;2108394;28;1656;-81
2021/07/28 06:10:42;;;;;;;;;;;;;;;;;;2113183;28;1512;-81
2021/07/28 06:11:42;;;;;;;;;;;;;;;;;;2126269;27;863;-81
2021/07/28 06:12:44;;;;;;;;;;;;;;;;;;2116501;28;1524;-81
2021/07/28 06:13:44;;;;;;;;;;;;;;;;;;2108538;28;1906;-82
2021/07/28 06:14:46;;;;;;;;;;;;;;;;;;2117002;28;874;-81
2021/07/28 06:15:50;;;;;;;;;;;;;;;;;;2119990;28;1292;-81
2021/07/28 06:16:53;;;;;;;;;;;;;;;;;;2118486;28;1543;-81
2021/07/28 06:17:53;;;;;;;;;;;;;;;;;;2117176;27;752;-81
2021/07/28 06:18:55;;;;;;;;;;;;;;;;;;2116863;28;2062;-81
2021/07/28 06:19:56;;;;;;;;;;;;;;;;;;2117344;28;815;-81
2021/07/28 06:20:57;;;;;;;;;;;;;;;;;;2131953;27;1574;-81
2021/07/28 06:21:58;;;;;;;;;;;;;;;;;;2133874;27;796;-81
2021/07/28 06:22:59;;;;;;;;;;;;;;;;;;2134357;27;1618;-83
2021/07/28 06:24:00;;;;;;;;;;;;;;;;;;2134821;27;873;-82
2021/07/28 06:25:01;;;;;;;;;;;;;;;;;;2134454;27;873;-82
2021/07/28 06:26:02;;;;;;;;;;;;;;;;;;2125528;27;1589;-81
2021/07/28 06:27:04;;;;;;;;;;;;;;;;;;2125373;27;911;-81
2021/07/28 06:28:05;;;;;;;;;;;;;;;;;;2134514;27;881;-81
2021/07/28 06:29:06;;;;;;;;;;;;;;;;;;2134423;27;871;-82
2021/07/28 06:30:08;;;;;;;;;;;;;;;;;;2125308;27;1520;-81
2021/07/28 06:31:10;;;;;;;;;;;;;;;;;;2121368;27;1568;-81
2021/07/28 06:32:11;;;;;;;;;;;;;;;;;;2126080;27;997;-81
2021/07/28 06:33:13;;;;;;;;;;;;;;;;;;2116557;28;1557;-81
2021/07/28 06:34:13;;;;;;;;;;;;;;;;;;2116743;28;1902;-81
2021/07/28 06:35:15;;;;;;;;;;;;;;;;;;2125826;27;784;-81
2021/07/28 06:36:15;;;;;;;;;;;;;;;;;;2125877;27;886;-81
2021/07/28 06:37:17;;;;;;;;;;;;;;;;;;2126045;27;803;-80
2021/07/28 06:38:18;;;;;;;;;;;;;;;;;;2116869;28;1192;-81
2021/07/28 06:39:20;;;;;;;;;;;;;;;;;;2116719;28;807;-81
2021/07/28 06:40:20;;;;;;;;;;;;;;;;;;2125838;27;835;-81
2021/07/28 06:41:22;;;;;;;;;;;;;;;;;;2125727;27;1404;-81
2021/07/28 06:42:22;;;;;;;;;;;;;;;;;;2126059;27;795;-82
2021/07/28 06:43:24;;;;;;;;;;;;;;;;;;2116450;28;1296;-80
2021/07/28 06:44:24;;;;;;;;;;;;;;;;;;2116735;28;779;-80
2021/07/28 06:45:26;;;;;;;;;;;;;;;;;;2117034;28;1526;-80
2021/07/28 06:46:28;;;;;;;;;;;;;;;;;;2108448;28;1535;-81
2021/07/28 06:47:30;;;;;;;;;;;;;;;;;;2116721;28;1189;-80
2021/07/28 06:48:30;;;;;;;;;;;;;;;;;;2116259;28;1602;-80
2021/07/28 06:49:32;;;;;;;;;;;;;;;;;;2113372;28;1335;-80
2021/07/28 06:50:33;;;;;;;;;;;;;;;;;;2112049;28;1568;-80
2021/07/28 06:51:34;;;;;;;;;;;;;;;;;;2116086;28;1311;-80
2021/07/28 06:52:35;;;;;;;;;;;;;;;;;;2111933;28;1306;-80
2021/07/28 06:53:36;;;;;;;;;;;;;;;;;;2108051;28;1317;-80
2021/07/28 06:54:37;;;;;;;;;;;;;;;;;;2116223;28;1921;-80
2021/07/28 06:55:39;;;;;;;;;;;;;;;;;;2125759;27;882;-80
2021/07/28 06:56:39;;;;;;;;;;;;;;;;;;2133442;27;1286;-80
2021/07/28 06:57:41;;;;;;;;;;;;;;;;;;2124606;27;1291;-81
2021/07/28 06:58:42;;;;;;;;;;;;;;;;;;2099645;28;1526;-80
2021/07/28 06:59:43;;;;;;;;;;;;;;;;;;2108196;28;1612;-80
2021/07/28 07:00:44;;;;;;;;;;;;;;;;;;2125607;27;908;-82
2021/07/28 07:01:47;;;;;;;;;;;;;;;;;;2125553;27;1148;-82
2021/07/28 07:02:47;;;;;;;;;;;;;;;;;;2125502;27;779;-82
2021/07/28 07:03:49;;;;;;;;;;;;;;;;;;2122680;27;1373;-83
2021/07/28 07:04:50;;;;;;;;;;;;;;;;;;2117139;28;1264;-83
2021/07/28 07:05:51;;;;;;;;;;;;;;;;;;2125657;27;1047;-82
2021/07/28 07:06:52;;;;;;;;;;;;;;;;;;2116028;28;1303;-83
2021/07/28 07:07:54;;;;;;;;;;;;;;;;;;2116704;27;961;-82
2021/07/28 07:08:55;;;;;;;;;;;;;;;;;;2115818;28;1301;-83
2021/07/28 07:09:56;;;;;;;;;;;;;;;;;;2116383;28;763;-82
2021/07/28 07:10:57;;;;;;;;;;;;;;;;;;2125642;27;930;-81